Time;durP1;ratioP1;P1;durP2;ratioP2;P2;SDS_P1;SDS_P2;PMS_P1;PMS_P2;Temp;Humidity;BMP_temperature;BMP_pressure;BME280_temperature;BME280_humidity;BME280_pressure;Samples;Min_cycle;Max_cycle;Signal;HPM_P1;HPM_P2
2021/05/28 00:00:54;;;;;;;13.23;7.03;;;;;;;;;;2057069;28;20177;-67
2021/05/28 00:01:54;;;;;;;8.77;6.80;;;;;;;;;;2049372;29;20187;-65
2021/05/28 00:02:54;;;;;;;14.20;7.18;;;;;;;;;;2049180;28;20201;-66
2021/05/28 00:03:55;;;;;;;14.50;7.00;;;;;;;;;;2047564;28;20243;-66
2021/05/28 00:04:55;;;;;;;10.07;6.53;;;;;;;;;;2049803;29;20269;-68
2021/05/28 00:05:55;;;;;;;9.07;7.15;;;;;;;;;;2058324;28;20202;-68
2021/05/28 00:06:56;;;;;;;14.25;7.55;;;;;;;;;;2059604;28;20699;-66
2021/05/28 00:07:56;;;;;;;7.85;6.47;;;;;;;;;;2059629;28;20665;-66
2021/05/28 00:08:56;;;;;;;11.82;7.32;;;;;;;;;;2053300;28;20226;-68
2021/05/28 00:09:58;;;;;;;13.10;7.03;;;;;;;;;;2051933;29;20821;-67
2021/05/28 00:10:58;;;;;;;13.38;6.68;;;;;;;;;;2058862;28;20174;-65
2021/05/28 00:11:59;;;;;;;9.93;7.50;;;;;;;;;;2059815;28;20205;-67
2021/05/28 00:12:59;;;;;;;8.95;7.55;;;;;;;;;;2060462;28;20600;-68
2021/05/28 00:13:59;;;;;;;14.07;6.88;;;;;;;;;;2049078;28;20679;-66
2021/05/28 00:15:00;;;;;;;8.70;6.18;;;;;;;;;;2049708;29;20278;-68
2021/05/28 00:16:01;;;;;;;10.90;7.32;;;;;;;;;;2055988;28;20179;-66
2021/05/28 00:17:02;;;;;;;10.13;6.82;;;;;;;;;;2051215;28;20186;-66
2021/05/28 00:18:02;;;;;;;11.15;7.10;;;;;;;;;;2050765;28;20191;-67
2021/05/28 00:19:03;;;;;;;13.88;7.65;;;;;;;;;;2054176;28;20241;-67
2021/05/28 00:20:05;;;;;;;15.43;7.45;;;;;;;;;;2056383;28;20262;-66
2021/05/28 00:21:05;;;;;;;13.43;7.18;;;;;;;;;;2057163;28;20190;-62
2021/05/28 00:22:05;;;;;;;11.85;7.07;;;;;;;;;;2049861;29;20227;-66
2021/05/28 00:23:06;;;;;;;14.77;7.90;;;;;;;;;;2050269;29;20170;-66
2021/05/28 00:24:06;;;;;;;16.95;7.85;;;;;;;;;;2059084;28;20228;-67
2021/05/28 00:25:07;;;;;;;12.18;7.80;;;;;;;;;;2058674;28;20803;-67
2021/05/28 00:26:07;;;;;;;12.63;7.25;;;;;;;;;;2058174;28;20206;-65
2021/05/28 00:27:07;;;;;;;11.95;7.97;;;;;;;;;;2050959;29;20231;-66
2021/05/28 00:28:08;;;;;;;13.02;8.07;;;;;;;;;;2043278;29;20179;-66
2021/05/28 00:29:08;;;;;;;11.65;7.47;;;;;;;;;;2041726;28;20192;-64
2021/05/28 00:30:09;;;;;;;15.63;7.63;;;;;;;;;;2067054;28;20178;-66
2021/05/28 00:31:09;;;;;;;14.60;7.65;;;;;;;;;;2047532;28;20184;-65
2021/05/28 00:32:09;;;;;;;10.95;7.70;;;;;;;;;;2055835;28;20856;-66
2021/05/28 00:33:09;;;;;;;13.00;7.95;;;;;;;;;;2061168;28;20174;-65
2021/05/28 00:34:10;;;;;;;13.35;8.05;;;;;;;;;;2048584;28;20557;-66
2021/05/28 00:35:10;;;;;;;13.35;8.02;;;;;;;;;;2052946;28;20228;-66
2021/05/28 00:36:11;;;;;;;11.63;8.30;;;;;;;;;;2058632;28;20194;-64
2021/05/28 00:37:11;;;;;;;14.57;8.45;;;;;;;;;;2057610;28;20178;-66
2021/05/28 00:38:11;;;;;;;14.13;8.05;;;;;;;;;;2056935;28;20173;-65
2021/05/28 00:39:11;;;;;;;20.25;8.50;;;;;;;;;;2056678;28;20202;-65
2021/05/28 00:40:13;;;;;;;14.98;8.13;;;;;;;;;;2057441;28;20181;-65
2021/05/28 00:41:13;;;;;;;13.00;8.20;;;;;;;;;;2051092;29;20237;-65
2021/05/28 00:42:14;;;;;;;24.10;9.18;;;;;;;;;;2040895;29;20652;-66
2021/05/28 00:43:14;;;;;;;14.48;8.00;;;;;;;;;;2044317;29;20544;-66
2021/05/28 00:44:19;;;;;;;10.75;8.10;;;;;;;;;;2057366;28;20291;-66
2021/05/28 00:45:19;;;;;;;13.55;8.52;;;;;;;;;;2049614;28;20207;-65
2021/05/28 00:46:20;;;;;;;14.77;8.40;;;;;;;;;;2051214;28;20273;-65
2021/05/28 00:47:21;;;;;;;11.32;7.70;;;;;;;;;;2058122;28;20158;-65
2021/05/28 00:48:21;;;;;;;13.75;8.13;;;;;;;;;;2052762;28;20197;-65
2021/05/28 00:49:21;;;;;;;15.90;8.77;;;;;;;;;;2051279;28;20681;-65
2021/05/28 00:50:22;;;;;;;11.30;7.45;;;;;;;;;;2057586;28;20246;-67
2021/05/28 00:51:23;;;;;;;15.65;8.88;;;;;;;;;;2065887;28;20180;-66
2021/05/28 00:52:23;;;;;;;12.90;8.90;;;;;;;;;;2062248;28;20175;-65
2021/05/28 00:53:24;;;;;;;16.77;8.32;;;;;;;;;;2054567;28;20185;-66
2021/05/28 00:54:25;;;;;;;9.38;7.97;;;;;;;;;;2058652;28;20201;-66
2021/05/28 00:55:25;;;;;;;21.48;8.63;;;;;;;;;;2057506;28;20801;-65
2021/05/28 00:56:26;;;;;;;11.95;7.57;;;;;;;;;;2055781;28;20320;-65
2021/05/28 00:57:28;;;;;;;16.52;8.38;;;;;;;;;;2057819;28;20597;-66
2021/05/28 00:58:29;;;;;;;13.63;8.02;;;;;;;;;;2057055;28;20204;-65
2021/05/28 00:59:29;;;;;;;16.25;7.90;;;;;;;;;;2056933;28;20210;-66
2021/05/28 01:00:30;;;;;;;16.77;8.98;;;;;;;;;;2058140;28;20182;-66
2021/05/28 01:01:31;;;;;;;13.57;8.18;;;;;;;;;;2065281;28;20184;-66
2021/05/28 01:02:32;;;;;;;10.15;8.18;;;;;;;;;;2053512;28;20279;-67
2021/05/28 01:03:33;;;;;;;15.95;8.20;;;;;;;;;;2043875;29;20313;-67
2021/05/28 01:04:33;;;;;;;10.93;7.88;;;;;;;;;;2049038;28;20183;-62
2021/05/28 01:05:33;;;;;;;16.42;9.27;;;;;;;;;;2056459;28;20190;-64
2021/05/28 01:06:34;;;;;;;12.82;8.55;;;;;;;;;;2056147;28;20186;-66
2021/05/28 01:07:35;;;;;;;14.63;8.75;;;;;;;;;;2053690;28;20181;-66
2021/05/28 01:08:35;;;;;;;16.08;9.05;;;;;;;;;;2055260;28;20371;-66
2021/05/28 01:09:35;;;;;;;23.58;9.63;;;;;;;;;;2055235;28;20198;-67
2021/05/28 01:10:35;;;;;;;18.95;9.48;;;;;;;;;;2046281;29;20279;-67
2021/05/28 01:11:36;;;;;;;13.35;9.52;;;;;;;;;;2055972;28;20189;-66
2021/05/28 01:12:37;;;;;;;16.63;9.00;;;;;;;;;;2052124;28;20191;-67
2021/05/28 01:13:37;;;;;;;17.80;8.82;;;;;;;;;;2056290;28;20273;-66
2021/05/28 01:14:43;;;;;;;17.10;8.65;;;;;;;;;;2057102;28;20590;-66
2021/05/28 01:15:44;;;;;;;16.15;8.43;;;;;;;;;;2056418;28;20194;-66
2021/05/28 01:16:44;;;;;;;17.23;9.30;;;;;;;;;;2055701;28;20274;-66
2021/05/28 01:17:44;;;;;;;17.10;8.88;;;;;;;;;;2057349;28;20178;-66
2021/05/28 01:18:45;;;;;;;12.18;8.65;;;;;;;;;;2057244;28;20686;-66
2021/05/28 01:19:45;;;;;;;17.33;9.90;;;;;;;;;;2053960;28;20175;-66
2021/05/28 01:20:45;;;;;;;17.73;9.80;;;;;;;;;;2052421;28;20566;-66
2021/05/28 01:21:46;;;;;;;16.83;9.60;;;;;;;;;;2056463;28;20182;-66
2021/05/28 01:22:47;;;;;;;19.88;9.85;;;;;;;;;;2057000;28;20214;-66
2021/05/28 01:23:48;;;;;;;14.77;9.05;;;;;;;;;;2055367;28;20198;-66
2021/05/28 01:24:48;;;;;;;18.65;9.18;;;;;;;;;;2057223;28;20171;-65
2021/05/28 01:25:49;;;;;;;20.40;10.15;;;;;;;;;;2056566;28;20178;-66
2021/05/28 01:26:49;;;;;;;21.40;9.57;;;;;;;;;;2057016;28;20167;-64
2021/05/28 01:27:49;;;;;;;20.48;10.80;;;;;;;;;;2055667;28;20167;-65
2021/05/28 01:28:50;;;;;;;15.43;10.63;;;;;;;;;;2047826;28;20214;-66
2021/05/28 01:29:50;;;;;;;17.27;10.40;;;;;;;;;;2052712;28;20603;-65
2021/05/28 01:30:50;;;;;;;17.33;11.45;;;;;;;;;;2049097;29;20202;-65
2021/05/28 01:31:50;;;;;;;15.45;11.25;;;;;;;;;;2049847;28;20631;-67
2021/05/28 01:32:51;;;;;;;14.50;10.05;;;;;;;;;;2053761;28;20175;-64
2021/05/28 01:33:52;;;;;;;22.90;10.80;;;;;;;;;;2056787;28;20178;-64
2021/05/28 01:34:52;;;;;;;16.42;9.98;;;;;;;;;;2057390;28;20719;-66
2021/05/28 01:35:54;;;;;;;16.48;9.77;;;;;;;;;;2059825;28;20252;-66
2021/05/28 01:36:55;;;;;;;13.20;10.07;;;;;;;;;;2056532;28;20238;-63
2021/05/28 01:37:55;;;;;;;16.13;9.27;;;;;;;;;;2046820;29;20640;-66
2021/05/28 01:38:55;;;;;;;25.70;10.52;;;;;;;;;;2056666;28;20201;-65
2021/05/28 01:39:56;;;;;;;16.85;10.95;;;;;;;;;;2055140;28;20252;-66
2021/05/28 01:40:56;;;;;;;17.08;11.80;;;;;;;;;;2057082;28;20303;-66
2021/05/28 01:41:56;;;;;;;19.10;11.93;;;;;;;;;;2053136;28;20179;-64
2021/05/28 01:42:57;;;;;;;21.05;11.07;;;;;;;;;;2056513;28;20332;-67
2021/05/28 01:43:57;;;;;;;15.43;10.95;;;;;;;;;;2050075;28;20202;-67
2021/05/28 01:44:58;;;;;;;16.02;10.50;;;;;;;;;;2055095;28;20178;-67
2021/05/28 01:45:58;;;;;;;15.45;9.95;;;;;;;;;;2048572;29;20194;-65
2021/05/28 01:46:59;;;;;;;17.55;10.70;;;;;;;;;;2049174;29;20190;-66
2021/05/28 01:48:01;;;;;;;19.95;11.13;;;;;;;;;;2056366;28;20352;-67
2021/05/28 01:49:02;;;;;;;23.70;10.88;;;;;;;;;;2054617;28;20277;-66
2021/05/28 01:50:03;;;;;;;19.75;11.88;;;;;;;;;;2056171;28;20166;-67
2021/05/28 01:51:05;;;;;;;18.30;10.75;;;;;;;;;;2056845;28;20187;-67
2021/05/28 01:52:05;;;;;;;15.00;10.43;;;;;;;;;;2057428;28;20557;-66
2021/05/28 01:53:06;;;;;;;18.55;10.73;;;;;;;;;;2061844;28;20173;-66
2021/05/28 01:54:06;;;;;;;15.55;10.13;;;;;;;;;;2054765;28;20261;-66
2021/05/28 01:55:08;;;;;;;17.75;10.75;;;;;;;;;;2055347;28;20812;-65
2021/05/28 01:56:08;;;;;;;14.63;10.35;;;;;;;;;;2056377;28;20178;-66
2021/05/28 01:57:09;;;;;;;18.55;11.52;;;;;;;;;;2056206;28;20174;-65
2021/05/28 01:58:14;;;;;;;20.10;10.85;;;;;;;;;;2055577;28;20175;-66
2021/05/28 01:59:23;;;;;;;19.92;9.93;;;;;;;;;;2054917;28;20273;-68
2021/05/28 02:00:23;;;;;;;15.18;9.55;;;;;;;;;;2044374;29;20183;-68
2021/05/28 02:01:24;;;;;;;18.80;10.65;;;;;;;;;;2048441;29;20707;-66
2021/05/28 02:02:24;;;;;;;27.48;11.00;;;;;;;;;;2054442;28;20225;-68
2021/05/28 02:03:25;;;;;;;17.98;9.57;;;;;;;;;;2056377;28;20210;-68
2021/05/28 02:04:25;;;;;;;18.77;9.80;;;;;;;;;;2051311;28;20281;-67
2021/05/28 02:05:26;;;;;;;19.70;10.63;;;;;;;;;;2057330;28;20189;-66
2021/05/28 02:06:26;;;;;;;18.00;10.73;;;;;;;;;;2057994;28;20548;-66
2021/05/28 02:07:26;;;;;;;16.15;8.95;;;;;;;;;;2050152;28;20163;-66
2021/05/28 02:08:26;;;;;;;15.48;9.73;;;;;;;;;;2056335;28;20174;-66
2021/05/28 02:09:27;;;;;;;22.52;10.43;;;;;;;;;;2049661;28;20218;-66
2021/05/28 02:10:29;;;;;;;19.02;10.57;;;;;;;;;;2051294;28;20202;-67
2021/05/28 02:11:29;;;;;;;16.65;10.38;;;;;;;;;;2054750;28;20201;-66
2021/05/28 02:12:29;;;;;;;23.45;11.15;;;;;;;;;;2051030;28;20190;-67
2021/05/28 02:13:30;;;;;;;17.67;10.63;;;;;;;;;;2040039;29;20711;-67
2021/05/28 02:14:30;;;;;;;19.35;10.93;;;;;;;;;;2048409;28;20254;-67
2021/05/28 02:15:31;;;;;;;17.90;11.13;;;;;;;;;;2048115;29;20242;-66
2021/05/28 02:16:34;;;;;;;24.75;11.38;;;;;;;;;;2039973;29;20189;-66
2021/05/28 02:17:34;;;;;;;24.20;10.98;;;;;;;;;;2047342;29;20242;-68
2021/05/28 02:18:35;;;;;;;17.05;11.38;;;;;;;;;;2051720;28;20652;-64
2021/05/28 02:19:35;;;;;;;21.92;11.15;;;;;;;;;;2077413;23;21098;-57
2021/05/28 02:20:35;;;;;;;18.10;10.70;;;;;;;;;;2051537;28;20655;-56
2021/05/28 02:21:36;;;;;;;18.48;10.00;;;;;;;;;;2051483;28;20237;-56
2021/05/28 02:22:36;;;;;;;20.60;10.85;;;;;;;;;;2049096;28;20589;-59
2021/05/28 02:23:37;;;;;;;17.35;10.60;;;;;;;;;;2054488;28;20193;-56
2021/05/28 02:24:37;;;;;;;18.35;11.65;;;;;;;;;;2050587;28;20171;-64
2021/05/28 02:25:37;;;;;;;20.85;11.40;;;;;;;;;;2056980;28;20182;-55
2021/05/28 02:26:38;;;;;;;17.90;11.02;;;;;;;;;;2064179;28;20239;-57
2021/05/28 02:27:39;;;;;;;16.38;10.63;;;;;;;;;;2059914;28;20205;-58
2021/05/28 02:28:39;;;;;;;18.60;12.13;;;;;;;;;;2058393;28;20181;-58
2021/05/28 02:29:40;;;;;;;17.10;11.85;;;;;;;;;;2057109;28;20722;-57
2021/05/28 02:30:40;;;;;;;16.80;11.95;;;;;;;;;;2058077;28;20190;-58
2021/05/28 02:31:40;;;;;;;22.10;11.75;;;;;;;;;;2049380;28;20187;-57
2021/05/28 02:32:41;;;;;;;19.40;12.63;;;;;;;;;;2053119;28;20185;-58
2021/05/28 02:33:41;;;;;;;20.23;12.23;;;;;;;;;;2056421;28;20191;-55
2021/05/28 02:34:42;;;;;;;19.17;14.07;;;;;;;;;;2049562;29;20203;-58
2021/05/28 02:35:42;;;;;;;21.17;13.35;;;;;;;;;;2047665;29;20188;-58
2021/05/28 02:36:42;;;;;;;29.35;15.35;;;;;;;;;;2053762;28;20179;-58
2021/05/28 02:37:43;;;;;;;21.08;15.07;;;;;;;;;;2056981;28;20642;-58
2021/05/28 02:38:43;;;;;;;33.33;16.85;;;;;;;;;;2061274;28;20237;-55
2021/05/28 02:39:43;;;;;;;27.20;16.33;;;;;;;;;;2047128;29;20266;-53
2021/05/28 02:40:43;;;;;;;30.10;17.90;;;;;;;;;;2048870;29;20250;-56
2021/05/28 02:41:43;;;;;;;28.92;18.00;;;;;;;;;;2056343;28;20185;-55
2021/05/28 02:42:44;;;;;;;32.38;19.55;;;;;;;;;;2052626;28;20197;-53
2021/05/28 02:43:44;;;;;;;41.97;20.33;;;;;;;;;;2043652;29;20246;-56
2021/05/28 02:44:44;;;;;;;33.42;21.10;;;;;;;;;;2044120;29;20175;-53
2021/05/28 02:45:44;;;;;;;32.65;21.25;;;;;;;;;;2051551;28;20178;-53
2021/05/28 02:46:45;;;;;;;45.92;23.80;;;;;;;;;;2056266;28;20551;-52
2021/05/28 02:47:46;;;;;;;48.90;23.30;;;;;;;;;;2047794;29;20614;-56
2021/05/28 02:48:46;;;;;;;36.00;22.25;;;;;;;;;;2047975;29;20222;-53
2021/05/28 02:49:47;;;;;;;40.33;21.55;;;;;;;;;;2053224;28;20193;-56
2021/05/28 02:50:47;;;;;;;32.70;21.45;;;;;;;;;;2056817;28;20274;-54
2021/05/28 02:51:47;;;;;;;40.60;23.42;;;;;;;;;;2042837;28;20684;-56
2021/05/28 02:52:47;;;;;;;43.35;23.42;;;;;;;;;;2043582;29;20185;-58
2021/05/28 02:53:48;;;;;;;39.40;23.83;;;;;;;;;;2043622;29;20176;-55
2021/05/28 02:54:48;;;;;;;45.83;25.08;;;;;;;;;;2047805;29;20699;-55
2021/05/28 02:55:48;;;;;;;57.35;30.17;;;;;;;;;;2054322;28;20182;-56
2021/05/28 02:56:49;;;;;;;52.75;28.20;;;;;;;;;;2054350;28;20321;-57
2021/05/28 02:57:49;;;;;;;42.67;26.13;;;;;;;;;;2052545;28;20189;-57
2021/05/28 02:58:49;;;;;;;47.47;26.15;;;;;;;;;;2053062;28;20175;-57
2021/05/28 02:59:49;;;;;;;42.95;25.15;;;;;;;;;;2055792;28;20245;-55
2021/05/28 03:00:50;;;;;;;40.75;26.88;;;;;;;;;;2055748;28;20183;-57
2021/05/28 03:01:50;;;;;;;46.92;26.60;;;;;;;;;;2056364;28;20536;-56
2021/05/28 03:02:51;;;;;;;44.30;25.58;;;;;;;;;;2055587;28;20317;-55
2021/05/28 03:03:51;;;;;;;43.10;25.98;;;;;;;;;;2052015;28;20171;-54
2021/05/28 03:04:51;;;;;;;43.88;24.33;;;;;;;;;;2044069;28;20243;-53
2021/05/28 03:05:51;;;;;;;45.85;25.05;;;;;;;;;;2049871;28;20198;-57
2021/05/28 03:06:52;;;;;;;45.42;27.25;;;;;;;;;;2050150;28;20322;-56
2021/05/28 03:07:52;;;;;;;51.20;31.23;;;;;;;;;;2052506;28;20601;-56
2021/05/28 03:08:52;;;;;;;43.45;25.05;;;;;;;;;;2051546;28;20522;-55
2021/05/28 03:09:53;;;;;;;38.30;25.15;;;;;;;;;;2053454;28;20190;-54
2021/05/28 03:10:53;;;;;;;39.15;24.67;;;;;;;;;;2047491;28;20250;-56
2021/05/28 03:11:53;;;;;;;31.70;22.52;;;;;;;;;;2048727;29;20174;-57
2021/05/28 03:12:54;;;;;;;26.73;19.77;;;;;;;;;;2048164;29;20214;-57
2021/05/28 03:13:54;;;;;;;29.88;20.35;;;;;;;;;;2044603;29;20217;-55
2021/05/28 03:14:54;;;;;;;29.52;18.98;;;;;;;;;;2056191;28;20208;-54
2021/05/28 03:15:54;;;;;;;28.92;20.02;;;;;;;;;;2057376;28;20668;-54
2021/05/28 03:16:56;;;;;;;28.63;19.17;;;;;;;;;;2056439;28;20178;-54
2021/05/28 03:17:58;;;;;;;31.65;19.52;;;;;;;;;;2053567;28;20183;-52
2021/05/28 03:19:01;;;;;;;27.55;18.35;;;;;;;;;;2054094;28;20201;-52
2021/05/28 03:20:04;;;;;;;22.70;17.70;;;;;;;;;;2055429;28;20193;-53
2021/05/28 03:21:22;;;;;;;28.23;19.17;;;;;;;;;;2046989;28;20179;-57
2021/05/28 03:22:32;;;;;;;25.20;18.63;;;;;;;;;;2036579;29;22740;-56
2021/05/28 03:23:35;;;;;;;28.35;20.25;;;;;;;;;;2049469;28;20215;-57
2021/05/28 03:24:35;;;;;;;27.10;20.70;;;;;;;;;;2047483;29;20262;-58
2021/05/28 03:25:36;;;;;;;31.42;20.85;;;;;;;;;;2044847;29;20190;-55
2021/05/28 03:26:36;;;;;;;26.52;19.85;;;;;;;;;;2052759;28;20182;-56
2021/05/28 03:27:37;;;;;;;30.02;19.95;;;;;;;;;;2056762;28;20178;-56
2021/05/28 03:28:37;;;;;;;32.53;20.55;;;;;;;;;;2053770;28;20174;-57
2021/05/28 03:29:37;;;;;;;30.38;20.30;;;;;;;;;;2055327;28;20198;-58
2021/05/28 03:30:38;;;;;;;31.38;19.52;;;;;;;;;;2054087;28;20205;-56
2021/05/28 03:31:38;;;;;;;34.78;22.05;;;;;;;;;;2047533;28;20183;-55
2021/05/28 03:32:38;;;;;;;29.50;21.83;;;;;;;;;;2047643;28;20278;-58
2021/05/28 03:33:39;;;;;;;31.00;21.02;;;;;;;;;;2051551;28;20257;-56
2021/05/28 03:34:39;;;;;;;27.98;20.75;;;;;;;;;;2056413;28;20189;-57
2021/05/28 03:35:39;;;;;;;35.03;21.80;;;;;;;;;;2058235;28;20574;-56
2021/05/28 03:36:40;;;;;;;26.95;19.92;;;;;;;;;;2058064;28;20295;-53
2021/05/28 03:37:40;;;;;;;29.02;19.73;;;;;;;;;;2058492;28;20174;-57
2021/05/28 03:38:41;;;;;;;32.28;20.40;;;;;;;;;;2055884;28;20180;-58
2021/05/28 03:39:44;;;;;;;28.45;19.65;;;;;;;;;;2057702;28;20265;-57
2021/05/28 03:40:44;;;;;;;24.98;19.85;;;;;;;;;;2058190;28;20185;-53
2021/05/28 03:41:44;;;;;;;24.15;18.70;;;;;;;;;;2053381;28;20197;-59
2021/05/28 03:42:45;;;;;;;27.13;19.13;;;;;;;;;;2054347;28;20265;-55
2021/05/28 03:43:45;;;;;;;24.73;18.23;;;;;;;;;;2058349;28;20175;-57
2021/05/28 03:44:46;;;;;;;22.83;17.77;;;;;;;;;;2057837;28;20265;-56
2021/05/28 03:45:46;;;;;;;25.08;18.48;;;;;;;;;;2057877;28;20183;-58
2021/05/28 03:46:47;;;;;;;25.83;18.63;;;;;;;;;;2046918;29;20179;-57
2021/05/28 03:47:47;;;;;;;24.40;17.83;;;;;;;;;;2038639;29;20675;-55
2021/05/28 03:48:47;;;;;;;24.42;18.38;;;;;;;;;;2044977;29;20235;-55
2021/05/28 03:49:47;;;;;;;23.77;18.63;;;;;;;;;;2053734;28;20201;-57
2021/05/28 03:50:48;;;;;;;18.60;16.52;;;;;;;;;;2058432;28;20238;-53
2021/05/28 03:51:48;;;;;;;26.00;19.38;;;;;;;;;;2058093;28;20607;-55
2021/05/28 03:52:48;;;;;;;27.02;20.13;;;;;;;;;;2057884;28;20177;-56
2021/05/28 03:53:49;;;;;;;26.13;18.38;;;;;;;;;;2057555;28;20236;-56
2021/05/28 03:54:49;;;;;;;25.27;19.75;;;;;;;;;;2057509;28;20175;-57
2021/05/28 03:55:49;;;;;;;26.85;20.10;;;;;;;;;;2057792;28;20178;-56
2021/05/28 03:56:50;;;;;;;24.08;18.88;;;;;;;;;;2054410;28;20223;-56
2021/05/28 03:57:50;;;;;;;22.63;18.08;;;;;;;;;;2057257;28;20172;-53
2021/05/28 03:58:50;;;;;;;21.58;18.05;;;;;;;;;;2057819;28;20218;-58
2021/05/28 03:59:50;;;;;;;23.45;17.42;;;;;;;;;;2048091;28;20226;-50
2021/05/28 04:00:51;;;;;;;22.17;16.38;;;;;;;;;;2051518;28;20192;-56
2021/05/28 04:01:51;;;;;;;22.13;16.60;;;;;;;;;;2059764;28;20310;-51
2021/05/28 04:02:51;;;;;;;21.58;16.90;;;;;;;;;;2054243;28;20198;-55
2021/05/28 04:03:52;;;;;;;20.17;16.92;;;;;;;;;;2056723;28;20170;-56
2021/05/28 04:04:52;;;;;;;21.75;16.38;;;;;;;;;;2054092;28;20278;-56
2021/05/28 04:05:52;;;;;;;22.52;16.00;;;;;;;;;;2058380;28;20182;-55
2021/05/28 04:06:53;;;;;;;19.15;16.38;;;;;;;;;;2057666;28;20229;-54
2021/05/28 04:07:53;;;;;;;22.75;16.35;;;;;;;;;;2056932;28;20186;-56
2021/05/28 04:08:53;;;;;;;19.60;15.63;;;;;;;;;;2056516;28;20685;-57
2021/05/28 04:09:53;;;;;;;18.88;16.05;;;;;;;;;;2047436;28;20191;-55
2021/05/28 04:10:54;;;;;;;19.25;15.00;;;;;;;;;;2047724;29;20193;-55
2021/05/28 04:11:54;;;;;;;26.20;16.23;;;;;;;;;;2058273;28;20244;-54
2021/05/28 04:12:54;;;;;;;20.15;15.95;;;;;;;;;;2054980;28;20209;-57
2021/05/28 04:13:55;;;;;;;22.30;17.38;;;;;;;;;;2055636;28;20179;-59
2021/05/28 04:14:55;;;;;;;26.48;16.35;;;;;;;;;;2056874;28;20658;-56
2021/05/28 04:15:56;;;;;;;22.58;16.77;;;;;;;;;;2057848;28;20174;-56
2021/05/28 04:16:56;;;;;;;22.48;16.73;;;;;;;;;;2053940;28;20210;-57
2021/05/28 04:17:56;;;;;;;21.38;16.83;;;;;;;;;;2046936;29;20722;-54
2021/05/28 04:18:57;;;;;;;20.90;16.00;;;;;;;;;;2045571;28;20281;-55
2021/05/28 04:19:57;;;;;;;22.20;17.38;;;;;;;;;;2058008;28;20234;-54
2021/05/28 04:20:57;;;;;;;21.27;16.75;;;;;;;;;;2054597;28;20189;-55
2021/05/28 04:21:57;;;;;;;21.42;17.05;;;;;;;;;;2055779;28;20317;-55
2021/05/28 04:22:58;;;;;;;18.58;16.33;;;;;;;;;;2057459;28;20241;-55
2021/05/28 04:23:59;;;;;;;20.80;16.80;;;;;;;;;;2052690;28;20178;-54
2021/05/28 04:25:00;;;;;;;19.63;16.33;;;;;;;;;;2055820;28;20643;-55
2021/05/28 04:26:00;;;;;;;23.27;17.52;;;;;;;;;;2057578;28;20233;-53
2021/05/28 04:27:00;;;;;;;21.75;18.27;;;;;;;;;;2054171;28;20179;-53
2021/05/28 04:28:01;;;;;;;25.38;18.30;;;;;;;;;;2055791;28;20229;-60
2021/05/28 04:29:01;;;;;;;23.17;16.23;;;;;;;;;;2055021;28;20174;-57
2021/05/28 04:30:02;;;;;;;20.65;16.73;;;;;;;;;;2057566;28;20215;-55
2021/05/28 04:31:02;;;;;;;17.65;15.70;;;;;;;;;;2052393;28;20179;-53
2021/05/28 04:32:03;;;;;;;18.35;16.25;;;;;;;;;;2054951;28;20831;-54
2021/05/28 04:33:03;;;;;;;19.65;15.52;;;;;;;;;;2044111;29;20775;-59
2021/05/28 04:34:04;;;;;;;22.58;16.20;;;;;;;;;;2047036;29;20242;-55
2021/05/28 04:35:04;;;;;;;20.23;14.95;;;;;;;;;;2049649;29;20191;-56
2021/05/28 04:36:05;;;;;;;21.42;16.67;;;;;;;;;;2042007;29;20279;-57
2021/05/28 04:37:05;;;;;;;20.35;15.05;;;;;;;;;;2054127;28;20205;-57
2021/05/28 04:38:06;;;;;;;19.80;17.00;;;;;;;;;;2056984;28;20219;-56
2021/05/28 04:39:06;;;;;;;20.98;16.60;;;;;;;;;;2055950;28;20682;-55
2021/05/28 04:40:06;;;;;;;22.15;16.85;;;;;;;;;;2055573;28;20198;-58
2021/05/28 04:41:07;;;;;;;23.73;17.75;;;;;;;;;;2047847;29;20282;-55
2021/05/28 04:42:07;;;;;;;23.23;20.52;;;;;;;;;;2035826;29;20195;-54
2021/05/28 04:43:07;;;;;;;25.42;21.52;;;;;;;;;;2048341;29;20182;-55
2021/05/28 04:44:08;;;;;;;25.38;20.25;;;;;;;;;;2052833;28;20302;-55
2021/05/28 04:45:08;;;;;;;29.08;22.65;;;;;;;;;;2057140;28;20170;-53
2021/05/28 04:46:08;;;;;;;30.00;23.83;;;;;;;;;;2055542;28;20185;-57
2021/05/28 04:47:09;;;;;;;32.92;26.23;;;;;;;;;;2040572;29;20207;-54
2021/05/28 04:48:09;;;;;;;31.33;23.80;;;;;;;;;;2039540;29;20218;-54
2021/05/28 04:49:09;;;;;;;29.70;23.77;;;;;;;;;;2057353;28;20220;-55
2021/05/28 04:50:10;;;;;;;28.48;22.00;;;;;;;;;;2051914;28;20175;-55
2021/05/28 04:51:10;;;;;;;29.40;23.25;;;;;;;;;;2057183;28;20265;-56
2021/05/28 04:52:10;;;;;;;26.75;22.45;;;;;;;;;;2063836;28;20165;-57
2021/05/28 04:53:10;;;;;;;28.67;22.50;;;;;;;;;;2056562;28;20174;-58
2021/05/28 04:54:11;;;;;;;32.47;22.85;;;;;;;;;;2049140;28;20178;-61
2021/05/28 04:55:11;;;;;;;29.65;22.42;;;;;;;;;;2048524;29;20770;-56
2021/05/28 04:56:12;;;;;;;33.20;23.70;;;;;;;;;;2049190;29;20179;-54
2021/05/28 04:57:12;;;;;;;25.75;22.98;;;;;;;;;;2056817;28;20236;-55
2021/05/28 04:58:12;;;;;;;25.65;22.13;;;;;;;;;;2057849;28;20555;-53
2021/05/28 04:59:13;;;;;;;25.17;20.80;;;;;;;;;;2052612;28;20233;-57
2021/05/28 05:00:13;;;;;;;24.98;22.13;;;;;;;;;;2057227;28;20170;-56
2021/05/28 05:01:13;;;;;;;22.95;19.45;;;;;;;;;;2056662;28;20202;-58
2021/05/28 05:02:14;;;;;;;23.17;19.58;;;;;;;;;;2057672;28;20178;-56
2021/05/28 05:03:14;;;;;;;23.98;18.77;;;;;;;;;;2051536;28;20201;-58
2021/05/28 05:04:14;;;;;;;24.00;19.48;;;;;;;;;;2050003;28;20262;-58
2021/05/28 05:05:15;;;;;;;23.42;19.08;;;;;;;;;;2057444;28;20690;-58
2021/05/28 05:06:16;;;;;;;22.80;19.45;;;;;;;;;;2054758;28;20170;-60
2021/05/28 05:07:16;;;;;;;24.67;20.77;;;;;;;;;;2057812;28;20167;-60
2021/05/28 05:08:16;;;;;;;23.73;19.42;;;;;;;;;;2052137;28;20657;-58
2021/05/28 05:09:17;;;;;;;24.13;20.30;;;;;;;;;;2057370;28;20708;-59
2021/05/28 05:10:17;;;;;;;26.75;22.13;;;;;;;;;;2054259;28;20178;-58
2021/05/28 05:11:17;;;;;;;25.00;20.45;;;;;;;;;;2057283;28;20229;-58
2021/05/28 05:12:17;;;;;;;24.23;19.70;;;;;;;;;;2058092;28;20166;-59
2021/05/28 05:13:18;;;;;;;28.90;21.40;;;;;;;;;;2055937;28;20710;-61
2021/05/28 05:14:18;;;;;;;30.63;22.73;;;;;;;;;;2050148;28;20186;-60
2021/05/28 05:15:18;;;;;;;28.83;22.35;;;;;;;;;;2057845;28;20173;-59
2021/05/28 05:16:18;;;;;;;25.77;21.02;;;;;;;;;;2057676;28;20534;-59
2021/05/28 05:17:19;;;;;;;33.47;24.30;;;;;;;;;;2057090;28;20241;-59
2021/05/28 05:18:19;;;;;;;35.50;25.73;;;;;;;;;;2047005;29;20500;-60
2021/05/28 05:19:19;;;;;;;38.00;26.23;;;;;;;;;;2043146;29;20183;-58
2021/05/28 05:20:20;;;;;;;33.78;22.52;;;;;;;;;;2057156;28;20615;-60
2021/05/28 05:21:20;;;;;;;29.52;21.77;;;;;;;;;;2048035;28;20239;-59
2021/05/28 05:22:20;;;;;;;27.23;22.58;;;;;;;;;;2048769;29;20179;-59
2021/05/28 05:23:21;;;;;;;33.65;22.85;;;;;;;;;;2053393;28;20183;-58
2021/05/28 05:24:21;;;;;;;26.95;20.80;;;;;;;;;;2053687;28;20167;-64
2021/05/28 05:25:21;;;;;;;24.55;20.42;;;;;;;;;;2045642;28;20192;-58
2021/05/28 05:26:21;;;;;;;30.10;21.35;;;;;;;;;;2042171;28;20191;-60
2021/05/28 05:27:22;;;;;;;24.42;20.38;;;;;;;;;;2055882;28;20178;-57
2021/05/28 05:28:23;;;;;;;23.65;18.67;;;;;;;;;;2046083;29;20187;-65
2021/05/28 05:29:23;;;;;;;26.15;18.77;;;;;;;;;;2046417;28;20327;-62
2021/05/28 05:30:23;;;;;;;28.02;19.40;;;;;;;;;;2050104;28;20238;-57
2021/05/28 05:31:23;;;;;;;24.00;19.42;;;;;;;;;;2057209;28;20186;-60
2021/05/28 05:32:24;;;;;;;26.58;19.85;;;;;;;;;;2056787;28;20779;-59
2021/05/28 05:33:24;;;;;;;25.15;18.83;;;;;;;;;;2055255;28;20197;-60
2021/05/28 05:34:24;;;;;;;23.38;18.65;;;;;;;;;;2057017;28;20182;-58
2021/05/28 05:35:25;;;;;;;21.92;19.02;;;;;;;;;;2046304;29;20176;-59
2021/05/28 05:36:26;;;;;;;21.80;18.42;;;;;;;;;;2048908;28;20582;-59
2021/05/28 05:37:26;;;;;;;19.23;16.92;;;;;;;;;;2050491;28;20632;-62
2021/05/28 05:38:26;;;;;;;21.60;16.60;;;;;;;;;;2048551;28;20202;-61
2021/05/28 05:39:27;;;;;;;20.20;15.68;;;;;;;;;;2048323;28;20198;-60
2021/05/28 05:40:27;;;;;;;20.23;16.05;;;;;;;;;;2049502;28;20199;-60
2021/05/28 05:41:28;;;;;;;19.92;16.17;;;;;;;;;;2058181;28;20190;-58
2021/05/28 05:42:28;;;;;;;17.75;15.63;;;;;;;;;;2057683;28;20225;-57
2021/05/28 05:43:28;;;;;;;17.67;15.43;;;;;;;;;;2056403;28;20190;-59
2021/05/28 05:44:29;;;;;;;20.45;15.88;;;;;;;;;;2048865;29;20212;-58
2021/05/28 05:45:29;;;;;;;18.77;15.40;;;;;;;;;;2049115;29;20193;-60
2021/05/28 05:46:29;;;;;;;16.45;14.85;;;;;;;;;;2057121;28;20197;-60
2021/05/28 05:47:30;;;;;;;17.27;15.20;;;;;;;;;;2049198;28;20163;-59
2021/05/28 05:48:30;;;;;;;20.83;15.98;;;;;;;;;;2049299;29;20175;-60
2021/05/28 05:49:30;;;;;;;19.23;15.30;;;;;;;;;;2057253;28;20191;-59
2021/05/28 05:50:30;;;;;;;17.27;15.45;;;;;;;;;;2057823;28;20653;-60
2021/05/28 05:51:31;;;;;;;18.30;15.38;;;;;;;;;;2057799;28;20173;-58
2021/05/28 05:52:31;;;;;;;17.27;15.48;;;;;;;;;;2048925;29;20696;-58
2021/05/28 05:53:31;;;;;;;16.98;15.27;;;;;;;;;;2048631;29;20242;-60
2021/05/28 05:54:32;;;;;;;17.90;14.23;;;;;;;;;;2057839;28;20224;-58